»·PEaware :: DCM2499 KRAL-KVGT

DCM2499 :: KRAL-KVGT

FLIGHT INFORMATION

Flight Status: Arrived
Operator: Unknown
More flights by this operator :: More flights under this callsign
Pilot: Alec D. (17934)
Aircraft: GATES LEARJET LEARJET 35/36
(LJ35)
More flights by this aircraft type
Origin: KRAL Riverside Mun
United States
Destination: KVGT North Las Vegas
United States
More flights between these airports :: More routes between these airports
Route: +PDZ POM POM295 RV DAG CLARR3
File this flight plan on PilotEdge
Remarks:
Altitude:
(Current/Filed)
21,000ft
Speed:
(Current/Filed)
415kts
Departed: 04-Aug-18 10:14 AM
Arrived: 04-Aug-18 10:58 AM
Distance/Time
Traveled:
175nm/0:43
Distance/Time
To Go:
Arrived

Flight Plot

Page will automatically refresh every two minutes.

Flight plan parsing failed; only flown route is shown


Map Options




Map Legend


Flown Route
Filed Route
Departure Airport
Arrival Airport
Navaid (VOR, NDB)
Fix

Horizontal Profiles

Position Reports

Time Latitude Longitude Heading Altitude Ground
Speed
04-Aug-18 09:51 33.951043 -117.446346 284 820ft 0kts
04-Aug-18 09:52 33.951043 -117.446346 284 820ft 0kts
04-Aug-18 09:53 33.951043 -117.446346 284 820ft 0kts
04-Aug-18 09:54 33.951043 -117.446346 284 820ft 0kts
04-Aug-18 09:55 33.951043 -117.446346 284 820ft 0kts
04-Aug-18 09:56 33.951043 -117.446346 284 820ft 0kts
04-Aug-18 09:57 33.951043 -117.446346 284 820ft 0kts
04-Aug-18 09:58 33.951043 -117.446346 284 820ft 0kts
04-Aug-18 09:59 33.951043 -117.446346 284 820ft 0kts
04-Aug-18 10:00 33.951043 -117.446346 284 820ft 0kts
04-Aug-18 10:01 33.951043 -117.446346 284 820ft 0kts
04-Aug-18 10:02 33.951043 -117.446346 284 820ft 0kts
04-Aug-18 10:03 33.951043 -117.446346 284 820ft 0kts
04-Aug-18 10:04 33.951043 -117.446346 284 820ft 0kts
04-Aug-18 10:05 33.951043 -117.446346 284 820ft 0kts
04-Aug-18 10:06 33.951043 -117.446346 284 820ft 0kts
04-Aug-18 10:07 33.951043 -117.446346 284 820ft 0kts
04-Aug-18 10:08 33.951043 -117.446346 284 820ft 0kts
04-Aug-18 10:09 33.951043 -117.446346 284 820ft 0kts
04-Aug-18 10:10 33.951051 -117.446383 285 820ft 0kts
04-Aug-18 10:11 33.951510 -117.443503 98 821ft 14kts
04-Aug-18 10:12 33.950516 -117.438531 103 821ft 12kts
04-Aug-18 10:13 33.949889 -117.435317 101 821ft 4kts
04-Aug-18 10:14 33.950621 -117.435032 281 821ft 0kts
04-Aug-18 10:15 33.956823 -117.465331 283 1748ft 164kts
04-Aug-18 10:16 33.943081 -117.522771 237 4027ft 199kts
04-Aug-18 10:17 33.923991 -117.577100 306 4017ft 203kts
04-Aug-18 10:18 33.971596 -117.615432 310 4012ft 216kts
04-Aug-18 10:19 34.012235 -117.680516 305 6558ft 261kts
04-Aug-18 10:20 34.056361 -117.752235 305 9713ft 273kts
04-Aug-18 10:21 34.105484 -117.824716 316 12648ft 287kts
04-Aug-18 10:22 34.182042 -117.814832 46 14751ft 335kts
04-Aug-18 10:23 34.242184 -117.722466 51 17405ft 358kts
04-Aug-18 10:24 34.304520 -117.625391 52 20167ft 376kts
04-Aug-18 10:25 34.371371 -117.520407 52 21037ft 400kts
04-Aug-18 10:26 34.439364 -117.413268 52 21039ft 402kts
04-Aug-18 10:27 34.507495 -117.305560 52 21049ft 403kts
04-Aug-18 10:28 34.575916 -117.197083 52 21077ft 403kts
04-Aug-18 10:29 34.643988 -117.088839 52 21085ft 404kts
04-Aug-18 10:30 34.712145 -116.980126 52 21049ft 406kts
04-Aug-18 10:31 34.780756 -116.870350 52 20995ft 407kts
04-Aug-18 10:32 34.849120 -116.760635 52 20972ft 407kts
04-Aug-18 10:33 34.917639 -116.650318 52 20972ft 407kts
04-Aug-18 10:34 34.989620 -116.544066 44 20979ft 407kts
04-Aug-18 10:35 35.068768 -116.445641 44 20987ft 407kts
04-Aug-18 10:36 35.148104 -116.346512 44 20996ft 407kts
04-Aug-18 10:37 35.227049 -116.247575 45 20996ft 407kts
04-Aug-18 10:38 35.305959 -116.148371 45 20996ft 407kts
04-Aug-18 10:39 35.383057 -116.051158 44 20195ft 379kts
04-Aug-18 10:40 35.454462 -115.960890 45 18194ft 360kts
04-Aug-18 10:41 35.522768 -115.874306 45 16195ft 348kts
04-Aug-18 10:42 35.589186 -115.789894 46 14193ft 337kts
04-Aug-18 10:43 35.652591 -115.709113 46 13043ft 314kts
04-Aug-18 10:44 35.713095 -115.631825 46 13038ft 316kts
04-Aug-18 10:45 35.778222 -115.557573 33 13047ft 322kts
04-Aug-18 10:46 35.852374 -115.495924 34 13049ft 318kts
04-Aug-18 10:47 35.926710 -115.445558 19 13049ft 284kts
04-Aug-18 10:48 35.998057 -115.412596 20 13039ft 270kts
04-Aug-18 10:49 36.068618 -115.381493 5 13041ft 267kts
04-Aug-18 10:50 36.142514 -115.391789 351 11643ft 269kts
04-Aug-18 10:51 36.216286 -115.403335 350 10340ft 264kts
04-Aug-18 10:52 36.281894 -115.413714 350 10064ft 219kts
04-Aug-18 10:53 36.339562 -115.397095 57 8555ft 227kts
04-Aug-18 10:54 36.356833 -115.325906 76 7080ft 204kts
04-Aug-18 10:55 36.339113 -115.273216 157 5082ft 166kts
04-Aug-18 10:56 36.295260 -115.258245 164 3807ft 147kts
04-Aug-18 10:57 36.256677 -115.233294 150 3196ft 157kts
04-Aug-18 10:58 36.221602 -115.211455 139 2431ft 137kts
04-Aug-18 10:59 36.205504 -115.191096 134 2208ft 0kts
04-Aug-18 11:00 36.205071 -115.191164 224 2208ft 0kts
04-Aug-18 11:01 36.207156 -115.194494 312 2208ft 22kts
04-Aug-18 11:02 36.209214 -115.198505 227 2208ft 10kts
04-Aug-18 11:03 36.209109 -115.198650 228 2208ft 0kts
04-Aug-18 11:04 36.209109 -115.198650 228 2208ft 0kts
04-Aug-18 11:05 36.209109 -115.198650 228 2208ft 0kts
04-Aug-18 11:06 36.209109 -115.198650 228 2208ft 0kts
04-Aug-18 11:07 36.209109 -115.198650 228 2208ft 0kts
04-Aug-18 11:08 36.209109 -115.198650 228 2208ft 0kts
04-Aug-18 11:09 36.209109 -115.198650 228 2208ft 0kts
04-Aug-18 11:10 36.209109 -115.198650 228 2208ft 0kts

Navigation Log

Ident Type
Flight plan parsing failed, navigation log unavailable